Time;durP1;ratioP1;P1;durP2;ratioP2;P2;SDS_P1;SDS_P2;PMS_P1;PMS_P2;Temp;Humidity;BMP_temperature;BMP_pressure;BME280_temperature;BME280_humidity;BME280_pressure;Samples;Min_cycle;Max_cycle;Signal;HPM_P1;HPM_P2
2023/04/08 00:00:57;;;;;;;31.00;21.30;;;;;;;10.33;94.45;101074.77;105943;1256;61233;-89
2023/04/08 00:03:25;;;;;;;25.40;17.80;;;;;;;10.32;94.55;101071.35;106771;1256;72871;-88
2023/04/08 00:05:52;;;;;;;26.90;17.50;;;;;;;10.32;94.65;101072.05;105967;1256;63884;-86
2023/04/08 00:08:20;;;;;;;28.00;17.20;;;;;;;10.31;94.61;101071.42;106142;1255;72557;-88
2023/04/08 00:10:48;;;;;;;27.30;15.60;;;;;;;10.28;94.69;101068.74;105986;1257;61691;-87
2023/04/08 00:13:20;;;;;;;24.70;15.40;;;;;;;10.27;94.85;101068.64;105987;1256;61168;-87
2023/04/08 00:15:47;;;;;;;22.70;14.70;;;;;;;10.27;95.00;101070.20;105915;1259;74908;-91
2023/04/08 00:18:15;;;;;;;23.30;15.00;;;;;;;10.28;95.04;101066.83;105925;1260;65096;-88
2023/04/08 00:20:44;;;;;;;20.50;13.80;;;;;;;10.30;95.13;101064.65;105956;1256;72517;-88
2023/04/08 00:23:11;;;;;;;25.00;14.70;;;;;;;10.32;94.94;101069.27;106322;1260;61717;-88
2023/04/08 00:25:38;;;;;;;18.50;13.90;;;;;;;10.32;94.67;101068.02;106166;1258;60557;-87
2023/04/08 00:28:05;;;;;;;23.90;14.50;;;;;;;10.27;94.73;101068.28;106577;1260;74898;-85
2023/04/08 00:30:33;;;;;;;18.70;15.30;;;;;;;10.21;95.02;101067.17;106639;1259;63789;-90
2023/04/08 00:33:00;;;;;;;22.40;15.10;;;;;;;10.21;95.44;101067.33;105832;1256;73681;-87
2023/04/08 00:35:27;;;;;;;26.40;14.70;;;;;;;10.25;95.70;101065.57;105863;1260;63049;-86
2023/04/08 00:37:54;;;;;;;20.60;14.90;;;;;;;10.28;95.63;101065.77;106106;1257;62247;-87
2023/04/08 00:40:22;;;;;;;20.90;16.60;;;;;;;10.29;95.55;101063.66;106107;1260;73926;-88
2023/04/08 00:42:50;;;;;;;20.50;15.50;;;;;;;10.32;95.65;101058.08;106633;1256;65550;-86
2023/04/08 00:45:17;;;;;;;25.70;16.90;;;;;;;10.36;95.56;101057.89;106135;1256;73831;-86
2023/04/08 00:47:45;;;;;;;25.00;18.00;;;;;;;10.37;95.40;101055.89;106026;1255;61155;-88
2023/04/08 00:50:12;;;;;;;19.70;16.70;;;;;;;10.36;95.27;101053.67;106154;1255;61319;-86
2023/04/08 00:52:39;;;;;;;21.20;16.50;;;;;;;10.34;94.91;101052.06;106032;1256;74647;-87
2023/04/08 00:55:09;;;;;;;26.10;17.60;;;;;;;10.30;94.74;101049.81;106010;1256;63524;-87
2023/04/08 00:57:36;;;;;;;21.00;15.50;;;;;;;10.24;94.66;101053.02;106796;1255;71977;-86
2023/04/08 01:00:08;;;;;;;22.10;15.70;;;;;;;10.20;94.77;101050.66;107262;1255;62664;-85
2023/04/08 01:03:09;;;;;;;21.70;15.40;;;;;;;10.15;94.94;101052.10;106655;1255;61100;-88
2023/04/08 01:06:02;;;;;;;28.20;15.10;;;;;;;10.12;95.19;101054.02;106884;1260;75076;-84
2023/04/08 01:08:30;;;;;;;23.60;15.70;;;;;;;10.09;95.33;101054.34;106688;1255;64255;-84
2023/04/08 01:11:01;;;;;;;22.60;13.80;;;;;;;10.08;95.45;101051.61;106604;1258;73813;-87
2023/04/08 01:13:30;;;;;;;20.30;15.20;;;;;;;10.07;95.47;101054.27;105901;1256;62971;-86
2023/04/08 01:16:02;;;;;;;22.40;13.70;;;;;;;10.05;95.60;101055.41;105802;1256;61157;-87
2023/04/08 01:18:29;;;;;;;27.90;13.30;;;;;;;10.04;95.46;101062.79;105871;1256;73805;-87
2023/04/08 01:20:56;;;;;;;23.90;14.40;;;;;;;10.05;95.49;101061.52;107666;1255;63940;-85
2023/04/08 01:24:01;;;;;;;20.70;12.40;;;;;;;10.04;95.59;101061.94;108343;1255;73359;-86
2023/04/08 01:26:28;;;;;;;19.50;13.10;;;;;;;10.04;95.55;101057.92;108911;1255;63026;-85
2023/04/08 01:28:58;;;;;;;22.70;11.50;;;;;;;10.02;95.51;101059.74;108194;1255;60561;-87
2023/04/08 01:31:25;;;;;;;22.60;13.20;;;;;;;10.01;95.54;101064.16;107945;1255;74848;-87
2023/04/08 01:33:52;;;;;;;18.30;12.50;;;;;;;10.00;95.30;101067.21;107405;1257;64458;-87
2023/04/08 01:36:22;;;;;;;18.90;11.60;;;;;;;9.92;94.89;101069.69;106677;1260;73823;-86
2023/04/08 01:38:49;;;;;;;23.70;11.80;;;;;;;9.84;95.17;101064.49;106155;1255;60915;-86
2023/04/08 01:41:17;;;;;;;19.20;11.30;;;;;;;9.81;95.40;101068.67;105918;1256;61212;-90
2023/04/08 01:43:49;;;;;;;23.50;11.10;;;;;;;9.78;95.66;101073.55;105853;1260;74834;-86
2023/04/08 01:46:16;;;;;;;14.30;11.80;;;;;;;9.75;95.89;101074.20;105892;1261;65791;-88
2023/04/08 01:48:43;;;;;;;19.00;13.50;;;;;;;9.72;96.15;101079.03;105741;1256;72530;-88
2023/04/08 01:51:10;;;;;;;16.80;12.50;;;;;;;9.73;96.52;101078.66;105879;1260;62925;-85
2023/04/08 01:53:37;;;;;;;17.70;12.80;;;;;;;9.77;96.60;101077.77;105534;1261;61308;-86
2023/04/08 01:56:07;;;;;;;17.50;12.00;;;;;;;9.78;96.42;101076.84;105665;1259;74580;-87
2023/04/08 01:58:45;;;;;;;19.60;13.90;;;;;;;9.75;96.03;101083.80;105857;1260;64706;-85
2023/04/08 02:01:17;;;;;;;17.80;11.30;;;;;;;9.70;95.97;101086.48;105675;1260;72826;-88
2023/04/08 02:03:45;;;;;;;17.60;11.80;;;;;;;9.68;96.18;101086.61;105766;1255;62027;-86
2023/04/08 02:06:13;;;;;;;20.20;12.80;;;;;;;9.67;96.40;101090.66;105513;1260;61762;-88
2023/04/08 02:08:40;;;;;;;17.30;12.00;;;;;;;9.66;96.81;101089.13;105781;1260;73193;-88
2023/04/08 02:11:09;;;;;;;19.00;10.60;;;;;;;9.70;97.10;101086.30;105760;1255;64821;-85
2023/04/08 02:13:36;;;;;;;15.70;9.30;;;;;;;9.73;96.95;101087.58;105812;1259;72568;-89
2023/04/08 02:16:09;;;;;;;17.00;8.40;;;;;;;9.74;97.02;101086.65;105782;1255;63572;-88
2023/04/08 02:18:37;;;;;;;18.70;8.80;;;;;;;9.78;97.32;101084.86;105844;1257;60568;-86
2023/04/08 02:21:13;;;;;;;14.80;8.90;;;;;;;9.84;97.23;101084.94;105703;1258;74842;-89
2023/04/08 02:23:41;;;;;;;13.50;8.90;;;;;;;9.90;97.05;101086.53;105832;1258;63581;-86
2023/04/08 02:26:15;;;;;;;13.40;8.90;;;;;;;9.96;96.94;101086.98;105701;1255;73493;-89
2023/04/08 02:28:42;;;;;;;11.30;9.30;;;;;;;10.00;96.76;101086.79;105859;1260;60484;-89
2023/04/08 02:31:13;;;;;;;16.30;9.80;;;;;;;10.01;96.42;101085.16;105790;1256;61367;-89
2023/04/08 02:33:44;;;;;;;;;;;;;;;9.99;96.08;101087.85;105770;1256;74917;-89
2023/04/08 02:36:12;;;;;;;13.70;8.70;;;;;;;9.98;95.97;101090.54;105835;1257;64959;-87
2023/04/08 02:38:40;;;;;;;15.10;8.80;;;;;;;9.94;95.93;101091.23;105848;1256;74226;-88
2023/04/08 02:41:08;;;;;;;11.90;8.00;;;;;;;9.91;96.05;101089.63;105760;1260;61046;-87
2023/04/08 02:43:35;;;;;;;18.60;9.00;;;;;;;9.89;96.19;101090.61;105893;1255;61044;-88
2023/04/08 02:46:09;;;;;;;;;;;;;;;9.87;96.45;101085.64;105996;1255;74879;-87
2023/04/08 02:48:37;;;;;;;16.20;9.00;;;;;;;9.85;96.47;101086.96;105956;1259;63821;-88
2023/04/08 02:51:04;;;;;;;17.50;10.10;;;;;;;9.84;96.55;101089.13;106221;1260;72893;-87
2023/04/08 02:53:32;;;;;;;18.80;9.90;;;;;;;9.83;96.67;101086.02;106091;1256;63286;-88
2023/04/08 02:56:00;;;;;;;14.40;9.40;;;;;;;9.84;96.71;101090.33;107258;1255;61485;-83
2023/04/08 02:58:27;;;;;;;19.80;10.30;;;;;;;9.86;96.65;101089.73;107653;1255;74732;-85
2023/04/08 03:00:54;;;;;;;14.90;9.50;;;;;;;9.88;96.61;101091.39;108550;1255;63952;-84
2023/04/08 03:03:27;;;;;;;17.00;9.30;;;;;;;9.90;96.55;101093.86;106753;1256;73713;-86
2023/04/08 03:05:55;;;;;;;16.50;10.70;;;;;;;9.94;96.48;101088.98;106070;1260;61901;-87
2023/04/08 03:08:22;;;;;;;17.10;10.70;;;;;;;9.96;96.33;101092.00;105810;1260;60459;-89
2023/04/08 03:10:49;;;;;;;13.30;9.70;;;;;;;9.99;96.22;101094.31;105995;1255;73944;-89
2023/04/08 03:13:16;;;;;;;11.30;9.80;;;;;;;10.02;96.25;101092.27;106059;1258;64802;-88
2023/04/08 03:15:43;;;;;;;18.30;10.30;;;;;;;10.04;95.92;101094.58;105936;1259;72706;-88
2023/04/08 03:18:10;;;;;;;17.20;10.50;;;;;;;10.03;95.53;101098.86;106053;1260;62733;-87
2023/04/08 03:20:37;;;;;;;15.20;10.00;;;;;;;9.97;95.48;101096.86;106760;1256;61907;-86
2023/04/08 03:23:08;;;;;;;21.20;9.60;;;;;;;9.92;95.69;101100.41;106562;1256;73347;-86
2023/04/08 03:25:35;;;;;;;14.20;9.00;;;;;;;9.93;95.95;101099.52;106639;1260;63814;-90
2023/04/08 03:28:02;;;;;;;14.10;8.80;;;;;;;9.98;96.33;101099.30;105653;1255;72829;-87
2023/04/08 03:30:30;;;;;;;18.60;9.30;;;;;;;10.02;96.42;101102.22;105860;1256;60513;-88
2023/04/08 03:32:59;;;;;;;14.20;9.40;;;;;;;10.05;96.09;101105.20;105881;1255;61168;-86
2023/04/08 03:35:26;;;;;;;13.20;8.80;;;;;;;10.04;95.72;101109.11;105870;1256;74565;-89
2023/04/08 03:37:54;;;;;;;15.40;9.70;;;;;;;9.97;95.40;101112.77;105811;1260;64797;-88
2023/04/08 03:40:21;;;;;;;15.70;9.30;;;;;;;9.87;95.57;101114.63;106031;1256;73589;-87
2023/04/08 03:42:50;;;;;;;17.90;8.60;;;;;;;9.78;95.85;101116.99;105948;1259;61899;-88
2023/04/08 03:45:17;;;;;;;10.70;8.40;;;;;;;9.77;96.55;101118.61;106048;1256;61337;-88
2023/04/08 03:47:46;;;;;;;10.30;7.50;;;;;;;9.80;97.04;101126.36;106127;1255;73554;-90
2023/04/08 03:50:13;;;;;;;12.00;7.70;;;;;;;9.81;97.09;101127.52;106118;1255;63854;-87
2023/04/08 03:52:45;;;;;;;9.80;7.10;;;;;;;9.77;96.97;101131.21;106133;1258;73444;-86
2023/04/08 03:55:12;;;;;;;13.90;7.00;;;;;;;9.74;96.98;101136.59;106066;1258;63591;-87
2023/04/08 03:57:39;;;;;;;16.00;9.00;;;;;;;9.71;97.19;101135.30;106022;1256;61247;-88
2023/04/08 04:00:08;;;;;;;10.60;7.90;;;;;;;9.74;97.61;101129.05;106347;1259;75170;-87
2023/04/08 04:02:40;;;;;;;10.70;8.40;;;;;;;9.78;97.75;101133.07;106249;1255;63791;-88
2023/04/08 04:05:09;;;;;;;16.20;8.00;;;;;;;9.84;97.66;101131.05;106260;1259;73859;-87
2023/04/08 04:07:37;;;;;;;14.20;9.40;;;;;;;9.87;97.53;101132.25;106594;1255;62653;-87
2023/04/08 04:10:05;;;;;;;15.80;7.70;;;;;;;9.92;97.49;101134.30;106797;1255;61378;-87
2023/04/08 04:12:32;;;;;;;15.80;7.70;;;;;;;9.97;97.31;101138.25;105923;1256;75642;-87
2023/04/08 04:15:00;;;;;;;15.50;7.70;;;;;;;9.97;97.14;101138.78;105943;1259;64824;-89
2023/04/08 04:17:28;;;;;;;10.40;7.40;;;;;;;10.00;97.42;101140.05;106210;1255;73562;-89
2023/04/08 04:19:56;;;;;;;12.40;7.20;;;;;;;10.02;97.42;101136.45;106425;1255;63401;-87
2023/04/08 04:22:27;;;;;;;16.60;9.10;;;;;;;10.10;96.98;101142.88;106486;1255;61612;-89
2023/04/08 04:24:55;;;;;;;21.60;9.40;;;;;;;10.10;96.85;101148.64;106532;1255;74379;-87
2023/04/08 04:29:35;;;;;;;16.80;8.10;;;;;;;10.20;97.09;101150.23;103242;1290;615347;-87
2023/04/08 04:32:03;;;;;;;16.40;9.10;;;;;;;10.23;96.71;101153.73;105695;1269;61128;-84
2023/04/08 04:34:31;;;;;;;16.30;8.50;;;;;;;10.25;96.23;101159.08;105933;1266;60143;-87
2023/04/08 04:36:58;;;;;;;15.90;8.60;;;;;;;10.24;96.04;101158.78;107941;1265;72076;-88
2023/04/08 04:39:25;;;;;;;18.50;9.20;;;;;;;10.25;96.00;101159.95;107718;1267;63878;-87
2023/04/08 04:41:52;;;;;;;17.00;9.10;;;;;;;10.28;96.02;101159.63;108393;1262;583291;-90
2023/04/08 04:44:18;;;;;;;24.00;10.50;;;;;;;10.30;96.10;101162.00;107523;1263;61940;-90
2023/04/08 04:46:45;;;;;;;15.90;8.60;;;;;;;10.32;96.14;101161.52;107272;1262;61123;-89
2023/04/08 04:49:13;;;;;;;20.40;9.30;;;;;;;10.37;96.13;101159.39;106909;1266;72299;-89
2023/04/08 04:51:39;;;;;;;13.70;9.60;;;;;;;10.41;95.94;101162.16;105193;1264;63529;-88
2023/04/08 04:54:08;;;;;;;15.20;9.60;;;;;;;10.42;95.54;101163.14;105282;1263;73611;-87
2023/04/08 04:56:35;;;;;;;17.20;9.20;;;;;;;10.44;95.73;101163.73;105165;1270;63046;-89
2023/04/08 04:59:04;;;;;;;17.10;10.30;;;;;;;10.50;95.88;101160.30;105120;1263;59977;-87
2023/04/08 05:01:32;;;;;;;14.50;10.30;;;;;;;10.59;96.02;101158.09;105405;1261;74142;-86
2023/04/08 05:03:59;;;;;;;13.80;9.40;;;;;;;10.68;95.83;101157.41;105573;1260;64839;-86
2023/04/08 05:06:29;;;;;;;18.60;8.90;;;;;;;10.73;95.46;101158.08;105520;1260;73685;-87
2023/04/08 05:08:57;;;;;;;13.80;8.50;;;;;;;10.83;95.66;101163.13;105743;1259;62820;-90
2023/04/08 05:11:26;;;;;;;14.00;9.30;;;;;;;11.01;95.89;101168.34;105646;1257;61174;-88
2023/04/08 05:13:55;;;;;;;11.20;8.00;;;;;;;11.29;96.09;101162.10;105766;1256;74380;-84
2023/04/08 05:16:30;;;;;;;14.10;8.90;;;;;;;11.66;95.16;101173.00;105820;1259;64808;-88
2023/04/08 05:18:56;;;;;;;15.10;8.10;;;;;;;11.98;94.05;101175.96;105887;1254;71597;-86
2023/04/08 05:21:27;;;;;;;12.50;8.10;;;;;;;12.27;92.71;101176.73;105945;1253;61070;-89
2023/04/08 05:23:55;;;;;;;25.40;11.80;;;;;;;12.69;91.43;101174.63;105983;1255;60399;-90
2023/04/08 05:26:30;;;;;;;15.70;8.20;;;;;;;13.26;90.52;101172.58;106037;1254;75348;-86
2023/04/08 05:29:01;;;;;;;24.70;13.70;;;;;;;13.83;88.40;101175.67;105921;1256;64009;-86
2023/04/08 05:31:28;;;;;;;10.30;6.00;;;;;;;14.32;85.17;101181.91;106249;1253;73741;-88
2023/04/08 05:33:58;;;;;;;29.70;18.60;;;;;;;14.77;82.52;101188.05;106543;1255;61394;-87
2023/04/08 05:36:26;;;;;;;12.30;7.00;;;;;;;15.03;79.23;101193.54;105935;1254;61539;-87
2023/04/08 05:38:52;;;;;;;10.80;6.90;;;;;;;15.28;77.05;101197.95;106134;1255;72985;-88
2023/04/08 05:41:21;;;;;;;13.30;6.00;;;;;;;15.67;75.62;101199.43;106184;1255;67300;-87
2023/04/08 05:43:47;;;;;;;12.10;5.90;;;;;;;16.12;74.15;101195.09;105893;1254;73778;-85
2023/04/08 05:46:14;;;;;;;13.70;5.70;;;;;;;16.52;72.97;101195.63;106183;1254;60432;-86
2023/04/08 05:48:41;;;;;;;13.90;5.90;;;;;;;16.92;72.15;101198.97;105932;1251;60222;-88
2023/04/08 05:51:17;;;;;;;12.70;5.90;;;;;;;17.28;69.97;101195.77;106099;1254;74220;-88
2023/04/08 05:53:48;;;;;;;12.60;5.30;;;;;;;17.59;66.69;101198.42;106143;1255;64759;-89
2023/04/08 05:56:15;;;;;;;12.90;5.10;;;;;;;17.83;65.11;101197.63;106337;1253;72400;-88
2023/04/08 05:58:45;;;;;;;15.10;4.60;;;;;;;18.05;61.01;101202.56;105967;1254;61507;-87
2023/04/08 06:01:12;;;;;;;12.80;4.00;;;;;;;18.15;58.98;101209.64;106178;1252;61416;-87
2023/04/08 06:03:40;;;;;;;12.70;5.20;;;;;;;18.37;56.44;101213.69;105965;1255;74056;-89
2023/04/08 06:06:10;;;;;;;9.30;4.80;;;;;;;18.65;55.95;101208.44;105956;1252;64922;-83
2023/04/08 06:08:38;;;;;;;12.70;4.50;;;;;;;18.89;55.40;101205.75;106014;1252;73927;-86
2023/04/08 06:11:06;;;;;;;14.90;6.10;;;;;;;19.05;55.03;101210.23;106148;1254;61244;-88
2023/04/08 06:13:36;;;;;;;11.40;5.80;;;;;;;19.22;54.40;101210.02;105895;1254;60092;-87
2023/04/08 06:16:13;;;;;;;11.70;5.40;;;;;;;19.40;54.06;101208.08;106147;1256;72780;-89
2023/04/08 06:18:40;;;;;;;6.40;4.70;;;;;;;19.39;53.38;101213.15;105969;1254;65879;-88
2023/04/08 06:21:09;;;;;;;9.50;5.20;;;;;;;19.37;53.54;101208.54;105932;1256;73417;-88
2023/04/08 06:23:36;;;;;;;20.50;10.80;;;;;;;19.33;53.48;101212.64;106026;1255;61350;-87
2023/04/08 06:26:03;;;;;;;21.00;8.40;;;;;;;19.44;53.27;101214.30;106010;1255;61345;-86
2023/04/08 06:28:31;;;;;;;11.50;6.40;;;;;;;19.54;52.50;101212.15;105727;1254;73190;-89
2023/04/08 06:30:58;;;;;;;16.30;9.90;;;;;;;19.53;52.50;101211.56;105782;1257;65028;-88
2023/04/08 06:33:28;;;;;;;10.10;6.20;;;;;;;19.58;52.60;101213.45;106452;1253;73657;-85
2023/04/08 06:36:04;;;;;;;13.60;5.50;;;;;;;19.70;52.67;101225.13;106633;1254;61160;-87
2023/04/08 06:38:31;;;;;;;8.70;5.40;;;;;;;19.99;52.59;101224.54;106129;1253;59682;-87
2023/04/08 06:41:03;;;;;;;12.20;5.80;;;;;;;20.32;51.63;101225.77;106116;1254;74801;-88
2023/04/08 06:43:31;;;;;;;13.50;5.80;;;;;;;20.65;50.71;101232.55;106116;1257;63653;-87
2023/04/08 06:45:58;;;;;;;13.70;6.00;;;;;;;20.98;49.62;101235.15;107328;1254;73736;-89
2023/04/08 06:48:30;;;;;;;10.30;5.00;;;;;;;21.36;47.77;101238.64;106999;1255;60926;-89
2023/04/08 06:50:59;;;;;;;10.80;4.60;;;;;;;21.65;46.07;101228.39;106887;1256;61603;-90
2023/04/08 06:53:31;;;;;;;19.70;6.20;;;;;;;21.98;45.03;101232.34;106532;1256;74035;-89
2023/04/08 06:56:30;;;;;;;;;;;;;;;;;;;;;
2023/04/08 06:58:57;;;;;;;10.10;5.30;;;;;;;22.56;43.37;101223.48;106790;1256;73083;-88
2023/04/08 07:01:24;;;;;;;15.80;5.50;;;;;;;22.81;42.79;101221.11;106423;1257;62014;-89
2023/04/08 07:04:12;;;;;;;10.80;5.60;;;;;;;23.11;43.28;101218.09;106281;1261;60121;-89
2023/04/08 07:07:06;;;;;;;7.60;4.10;;;;;;;23.63;43.33;101218.71;105810;1256;73918;-89
2023/04/08 07:09:35;;;;;;;8.50;4.60;;;;;;;23.97;41.54;101217.38;106943;1256;63891;-89
2023/04/08 07:12:03;;;;;;;12.20;4.80;;;;;;;24.26;41.53;101218.90;107144;1257;73696;-91
2023/04/08 07:14:30;;;;;;;13.80;5.60;;;;;;;24.45;39.91;101215.97;107753;1256;61289;-88
2023/04/08 07:17:06;;;;;;;13.80;5.30;;;;;;;24.56;39.25;101215.88;107497;1256;61008;-88
2023/04/08 07:19:40;;;;;;;11.50;4.60;;;;;;;24.76;38.39;101214.38;107159;1256;73534;-91
2023/04/08 07:22:07;;;;;;;12.70;4.80;;;;;;;25.03;37.58;101216.42;106858;1251;65071;-88
2023/04/08 07:24:35;;;;;;;10.90;4.40;;;;;;;25.16;36.64;101220.67;106194;1251;72508;-87
2023/04/08 07:27:02;;;;;;;8.60;4.30;;;;;;;25.12;34.93;101224.11;106354;1256;61357;-87
2023/04/08 07:29:31;;;;;;;11.40;4.00;;;;;;;25.21;34.75;101224.54;106583;1251;61378;-89
2023/04/08 07:31:58;;;;;;;5.80;3.80;;;;;;;25.32;34.95;101219.84;106725;1251;72823;-89
2023/04/08 07:34:25;;;;;;;11.00;3.30;;;;;;;25.36;34.22;101217.38;106537;1253;64625;-88
2023/04/08 07:36:52;;;;;;;8.30;3.30;;;;;;;25.33;34.31;101218.80;106585;1252;73590;-87
2023/04/08 07:39:19;;;;;;;11.80;4.10;;;;;;;25.30;33.94;101220.86;106533;1251;61336;-85
2023/04/08 07:41:46;;;;;;;10.80;4.30;;;;;;;25.34;34.03;101219.96;106460;1251;61124;-89
2023/04/08 07:44:15;;;;;;;10.60;3.70;;;;;;;25.35;33.80;101218.16;106707;1251;74668;-87
2023/04/08 07:46:45;;;;;;;6.60;3.70;;;;;;;25.40;33.71;101216.48;106622;1256;64745;-88
2023/04/08 07:49:12;;;;;;;13.10;4.10;;;;;;;25.46;33.79;101216.59;106820;1251;73668;-89
2023/04/08 07:51:39;;;;;;;11.20;5.10;;;;;;;25.41;33.41;101216.74;107144;1251;60993;-86
2023/04/08 07:54:10;;;;;;;7.40;4.30;;;;;;;25.05;33.46;101214.02;107997;1251;61609;-87
2023/04/08 07:56:43;;;;;;;26.10;16.60;;;;;;;24.79;35.06;101215.12;109604;1251;74115;-86
2023/04/08 07:59:10;;;;;;;15.30;7.70;;;;;;;24.74;34.95;101213.20;109416;1251;63689;-87
2023/04/08 08:01:37;;;;;;;8.40;3.70;;;;;;;24.67;34.86;101216.10;108522;1251;72697;-86
2023/04/08 08:04:05;;;;;;;11.50;4.40;;;;;;;24.37;35.18;101213.80;108572;1255;60253;-86
2023/04/08 08:06:34;;;;;;;10.80;3.40;;;;;;;24.05;35.75;101215.13;107162;1251;60299;-87
2023/04/08 08:09:00;;;;;;;14.00;4.00;;;;;;;23.63;35.74;101212.66;106774;1251;74081;-86
2023/04/08 08:11:28;;;;;;;12.80;4.10;;;;;;;23.03;36.66;101213.19;106725;1257;64812;-88
2023/04/08 08:14:06;;;;;;;10.50;4.30;;;;;;;22.56;37.38;101216.36;106719;1251;73463;-88
2023/04/08 08:16:35;;;;;;;9.60;4.40;;;;;;;22.22;38.07;101219.05;106715;1255;61291;-86
2023/04/08 08:19:04;;;;;;;8.60;3.30;;;;;;;21.94;38.49;101224.80;106691;1251;61221;-87
2023/04/08 08:21:35;;;;;;;12.30;4.20;;;;;;;21.65;39.05;101223.40;106878;1256;74533;-87
2023/04/08 08:24:03;;;;;;;9.70;4.50;;;;;;;21.46;39.32;101226.09;106798;1251;65604;-87
2023/04/08 08:26:30;;;;;;;9.10;4.30;;;;;;;21.25;39.94;101232.94;106705;1252;72796;-84
2023/04/08 08:29:00;;;;;;;8.00;4.20;;;;;;;21.05;40.03;101240.71;106742;1251;60345;-86
2023/04/08 08:31:28;;;;;;;15.40;4.80;;;;;;;20.88;40.08;101249.42;106746;1255;60474;-85
2023/04/08 08:33:55;;;;;;;15.40;5.40;;;;;;;20.58;40.70;101244.21;106883;1251;73951;-84
2023/04/08 08:36:27;;;;;;;19.30;7.50;;;;;;;20.25;41.38;101244.71;106459;1255;64623;-84
2023/04/08 08:38:55;;;;;;;13.30;6.00;;;;;;;19.92;42.44;101243.77;106496;1251;72308;-87
2023/04/08 08:41:23;;;;;;;12.20;6.00;;;;;;;19.63;43.41;101241.20;106658;1254;60540;-87
2023/04/08 08:43:50;;;;;;;14.70;5.60;;;;;;;19.49;43.73;101250.92;106779;1251;61314;-86
2023/04/08 08:46:18;;;;;;;12.40;6.70;;;;;;;19.49;43.65;101252.02;107002;1256;74782;-87
2023/04/08 08:48:45;;;;;;;14.90;6.30;;;;;;;19.47;42.91;101262.82;107041;1251;65253;-85
2023/04/08 08:51:13;;;;;;;16.00;8.10;;;;;;;19.24;43.14;101263.02;107241;1251;73495;-85
2023/04/08 08:53:44;;;;;;;16.60;9.30;;;;;;;18.98;43.91;101260.87;106428;1251;60966;-82
2023/04/08 08:56:11;;;;;;;20.40;10.90;;;;;;;18.74;44.90;101260.50;106811;1251;60616;-85
2023/04/08 08:58:46;;;;;;;19.70;11.30;;;;;;;18.58;45.36;101262.90;106437;1251;73719;-86
2023/04/08 09:01:36;;;;;;;17.60;10.80;;;;;;;18.48;46.13;101253.66;106444;1255;64430;-89
2023/04/08 09:04:10;;;;;;;24.10;11.30;;;;;;;18.51;46.76;101260.81;106387;1257;74084;-87
2023/04/08 09:06:39;;;;;;;17.50;9.00;;;;;;;18.63;46.93;101258.48;106502;1255;60641;-86
2023/04/08 09:09:10;;;;;;;13.30;7.20;;;;;;;18.87;46.70;101261.77;106542;1251;61044;-87
2023/04/08 09:11:38;;;;;;;20.20;8.00;;;;;;;19.31;46.57;101259.89;106592;1251;73701;-87
2023/04/08 09:14:17;;;;;;;16.50;8.40;;;;;;;19.85;46.16;101256.52;106158;1251;64634;-86
2023/04/08 09:16:44;;;;;;;13.30;6.80;;;;;;;20.48;46.25;101255.95;106457;1255;71821;-88
2023/04/08 09:19:15;;;;;;;19.00;8.00;;;;;;;21.01;44.72;101255.87;106201;1251;61315;-86
2023/04/08 09:22:15;;;;;;;12.30;7.70;;;;;;;21.44;44.27;101250.73;108011;1253;61233;-88
2023/04/08 09:24:49;;;;;;;14.10;5.90;;;;;;;21.97;42.48;101250.73;106693;1253;72645;-87
2023/04/08 09:27:48;;;;;;;7.90;5.00;;;;;;;22.19;41.34;101253.76;106843;1251;65238;-85
2023/04/08 09:30:16;;;;;;;12.30;5.30;;;;;;;22.26;41.19;101249.89;108113;1251;72346;-84
2023/04/08 09:32:54;;;;;;;11.30;5.10;;;;;;;22.31;40.41;101252.39;107411;1251;61564;-85
2023/04/08 09:35:22;;;;;;;10.00;5.20;;;;;;;22.32;40.12;101249.96;106845;1251;60911;-86
2023/04/08 09:37:49;;;;;;;7.90;5.00;;;;;;;22.47;40.03;101253.80;106783;1251;73649;-85
2023/04/08 09:40:18;;;;;;;9.80;4.70;;;;;;;22.73;39.55;101254.21;106897;1252;65099;-86
2023/04/08 09:42:50;;;;;;;10.80;5.60;;;;;;;23.02;39.04;101251.67;107163;1251;73803;-87
2023/04/08 09:45:18;;;;;;;11.40;5.00;;;;;;;23.30;38.96;101252.20;107317;1251;60471;-86
2023/04/08 09:47:56;;;;;;;9.10;3.80;;;;;;;23.54;39.11;101245.52;106599;1251;60339;-85
2023/04/08 09:50:28;;;;;;;7.70;3.90;;;;;;;23.82;38.31;101245.84;106572;1252;74808;-86
2023/04/08 09:53:08;;;;;;;11.00;5.00;;;;;;;24.00;38.26;101242.86;106877;1251;64636;-86
2023/04/08 09:55:35;;;;;;;8.30;4.00;;;;;;;24.16;37.70;101244.86;107221;1255;73257;-83
2023/04/08 09:58:10;;;;;;;5.40;4.20;;;;;;;24.35;35.98;101247.79;106410;1255;61692;-84
2023/04/08 10:00:42;;;;;;;15.00;5.40;;;;;;;24.64;35.06;101245.58;106669;1252;60478;-86
2023/04/08 10:03:27;;;;;;;23.10;6.20;;;;;;;24.83;34.92;101252.96;106137;1251;73967;-86
2023/04/08 10:06:00;;;;;;;11.10;5.60;;;;;;;24.89;35.08;101251.04;106120;1251;64567;-86
2023/04/08 10:08:30;;;;;;;12.60;5.30;;;;;;;24.90;35.45;101250.58;105951;1251;73745;-87
2023/04/08 10:10:57;;;;;;;9.70;5.20;;;;;;;24.96;35.11;101252.44;106374;1251;61381;-88
2023/04/08 10:13:34;;;;;;;12.00;4.90;;;;;;;25.10;35.45;101252.40;106248;1251;61337;-87
2023/04/08 10:16:21;;;;;;;11.30;6.50;;;;;;;25.22;34.44;101253.88;106215;1255;74808;-88
2023/04/08 10:18:51;;;;;;;10.70;4.90;;;;;;;25.04;34.58;101254.67;106151;1251;63621;-87
2023/04/08 10:21:38;;;;;;;13.90;5.80;;;;;;;24.96;34.68;101258.48;105940;1251;73324;-88
2023/04/08 10:24:07;;;;;;;8.80;4.70;;;;;;;24.84;35.24;101251.63;106414;1251;61364;-88
2023/04/08 10:26:36;;;;;;;13.50;4.60;;;;;;;24.90;35.39;101255.40;106913;1255;60442;-87
2023/04/08 10:29:20;;;;;;;8.30;5.50;;;;;;;24.96;35.10;101248.10;106594;1256;73681;-88
2023/04/08 10:31:51;;;;;;;8.40;5.60;;;;;;;25.02;35.67;101250.64;106529;1253;64047;-87
2023/04/08 10:34:26;;;;;;;11.70;4.80;;;;;;;25.25;35.32;101249.23;106919;1251;72347;-87
2023/04/08 10:36:54;;;;;;;14.30;5.40;;;;;;;25.53;34.54;101251.61;106600;1251;60527;-87
2023/04/08 10:39:26;;;;;;;9.20;5.20;;;;;;;25.67;34.29;101250.13;106786;1251;61190;-87
2023/04/08 10:41:53;;;;;;;10.10;5.10;;;;;;;25.75;34.71;101244.95;106189;1251;73657;-86
2023/04/08 10:44:25;;;;;;;15.10;5.60;;;;;;;25.88;34.74;101241.14;106492;1251;63567;-86
2023/04/08 10:46:53;;;;;;;13.10;4.80;;;;;;;25.96;34.59;101237.00;106239;1251;73740;-88
2023/04/08 10:49:20;;;;;;;13.60;5.20;;;;;;;25.98;34.65;101237.48;106198;1253;60557;-88
2023/04/08 10:51:54;;;;;;;16.10;5.50;;;;;;;25.96;34.93;101236.48;106025;1251;61510;-89
2023/04/08 10:54:22;;;;;;;15.40;4.80;;;;;;;26.02;34.64;101237.43;106241;1251;73804;-87
2023/04/08 10:56:51;;;;;;;19.70;6.70;;;;;;;26.12;34.96;101236.17;106039;1255;64703;-88
2023/04/08 10:59:29;;;;;;;11.60;5.30;;;;;;;26.24;34.36;101230.02;106622;1251;73951;-84
2023/04/08 11:01:57;;;;;;;12.10;6.70;;;;;;;26.20;33.89;101235.14;107093;1251;60965;-87
2023/04/08 11:04:24;;;;;;;6.90;4.60;;;;;;;26.22;34.79;101228.08;106733;1251;60440;-86
2023/04/08 11:06:53;;;;;;;13.50;4.40;;;;;;;26.32;33.41;101225.14;107121;1251;73481;-87
2023/04/08 11:09:20;;;;;;;11.00;4.70;;;;;;;26.24;33.11;101212.44;108229;1251;63759;-87
2023/04/08 11:11:47;;;;;;;16.40;5.00;;;;;;;26.16;33.43;101211.88;109809;1251;72467;-87
2023/04/08 11:14:16;;;;;;;8.60;3.70;;;;;;;26.15;33.96;101210.02;109009;1251;60054;-87
2023/04/08 11:16:44;;;;;;;8.10;4.00;;;;;;;26.21;34.07;101209.56;108299;1251;61319;-87
2023/04/08 11:19:11;;;;;;;6.90;3.50;;;;;;;26.29;34.20;101208.39;107869;1251;73700;-88
2023/04/08 11:21:41;;;;;;;8.90;4.30;;;;;;;26.36;33.74;101207.22;107655;1251;63928;-87
2023/04/08 11:24:10;;;;;;;10.40;4.10;;;;;;;26.20;34.11;101200.11;107809;1253;72618;-87
2023/04/08 11:26:40;;;;;;;13.40;5.10;;;;;;;26.10;34.07;101199.34;106938;1255;61325;-85